Aviation Digital Data Service (ADDS)

Output produced by METARs form (0839 UTC 27 February 2020)
found at http://www.aviationweather.gov/metar/data/
 
METAR text: KILG 270816Z AUTO 28018G30KT 10SM -RA FEW021 BKN033 OVC055 06/03 A2950 RMK AO2 PK WND 28031/0803 P0001 T00610028 $
Conditions at: KILG (WILMINGTON , DE, US) observed 0816 UTC 27 February 2020
Temperature: 6.1°C (43°F)
Dewpoint: 2.8°C (37°F) [RH = 79%]
Pressure (altimeter): 29.50 inches Hg (999.1 mb)
Winds: from the W (280 degrees) at 21 MPH (18 knots; 9.3 m/s)
gusting to 34 MPH (30 knots; 15.4 m/s)
Visibility: 10 or more miles (16+ km)
Ceiling: 3300 feet AGL
Clouds: few clouds at 2100 feet AGL
broken clouds at 3300 feet AGL
overcast cloud deck at 5500 feet AGL
Weather: -RA  (light rain)
SOME DATA ABOVE MAY BE INACCURATE!!!
"$" is an indication the sensor requires maintenance

METAR text: KILG 270751Z AUTO 28013G22KT 10SM -RA SCT021 BKN025 OVC050 07/04 A2949 RMK AO2 PK WND 31029/0718 RAB0658 SLP986 P0000 T00670039 $
Conditions at: KILG (WILMINGTON , DE, US) observed 0751 UTC 27 February 2020
Temperature: 6.7°C (44°F)
Dewpoint: 3.9°C (39°F) [RH = 82%]
Pressure (altimeter): 29.49 inches Hg (998.7 mb)
[Sea-level pressure:  998.6 mb]
Winds: from the W (280 degrees) at 15 MPH (13 knots; 6.7 m/s)
gusting to 25 MPH (22 knots; 11.3 m/s)
Visibility: 10 or more miles (16+ km)
Ceiling: 2500 feet AGL
Clouds: scattered clouds at 2100 feet AGL
broken clouds at 2500 feet AGL
overcast cloud deck at 5000 feet AGL
Weather: -RA  (light rain)
SOME DATA ABOVE MAY BE INACCURATE!!!
"$" is an indication the sensor requires maintenance

METAR text: KILG 270651Z AUTO 29016G25KT 10SM FEW012 SCT017 OVC033 08/06 A2947 RMK AO2 PK WND 29030/0628 RAB0555E51 SLP979 P0010 T00780056 $
Conditions at: KILG (WILMINGTON , DE, US) observed 0651 UTC 27 February 2020
Temperature: 7.8°C (46°F)
Dewpoint: 5.6°C (42°F) [RH = 86%]
Pressure (altimeter): 29.47 inches Hg (998.1 mb)
[Sea-level pressure:  997.9 mb]
Winds: from the WNW (290 degrees) at 18 MPH (16 knots; 8.2 m/s)
gusting to 29 MPH (25 knots; 12.9 m/s)
Visibility: 10 or more miles (16+ km)
Ceiling: 3300 feet AGL
Clouds: few clouds at 1200 feet AGL
scattered clouds at 1700 feet AGL
overcast cloud deck at 3300 feet AGL
Weather:
SOME DATA ABOVE MAY BE INACCURATE!!!
"$" is an indication the sensor requires maintenance

METAR text: KILG 270648Z AUTO 30017G25KT 10SM -RA FEW012 SCT024 OVC031 08/06 A2947 RMK AO2 PK WND 29030/0628 RAB0555 P0010 $
Conditions at: KILG (WILMINGTON , DE, US) observed 0648 UTC 27 February 2020
Temperature: 8.0°C (46°F)
Dewpoint: 6.0°C (43°F) [RH = 87%]
Pressure (altimeter): 29.47 inches Hg (998.1 mb)
Winds: from the WNW (300 degrees) at 20 MPH (17 knots; 8.7 m/s)
gusting to 29 MPH (25 knots; 12.9 m/s)
Visibility: 10 or more miles (16+ km)
Ceiling: 3100 feet AGL
Clouds: few clouds at 1200 feet AGL
scattered clouds at 2400 feet AGL
overcast cloud deck at 3100 feet AGL
Weather: -RA  (light rain)
SOME DATA ABOVE MAY BE INACCURATE!!!
"$" is an indication the sensor requires maintenance

METAR text: KILG 270626Z AUTO 28022G28KT 3SM -RA BR SCT003 BKN016 OVC023 09/07 A2948 RMK AO2 PK WND 28028/0626 RAB0555 P0010 T00890067 $
Conditions at: KILG (WILMINGTON , DE, US) observed 0626 UTC 27 February 2020
Temperature: 8.9°C (48°F)
Dewpoint: 6.7°C (44°F) [RH = 86%]
Pressure (altimeter): 29.48 inches Hg (998.4 mb)
Winds: from the W (280 degrees) at 25 MPH (22 knots; 11.3 m/s)
gusting to 32 MPH (28 knots; 14.4 m/s)
Visibility: 3 miles ( 5 km)
Ceiling: 1600 feet AGL
Clouds: scattered clouds at 300 feet AGL
broken clouds at 1600 feet AGL
overcast cloud deck at 2300 feet AGL
Weather: -RA BR  (light rain, mist)
SOME DATA ABOVE MAY BE INACCURATE!!!
"$" is an indication the sensor requires maintenance

METAR text: KILG 270558Z AUTO 00000KT 2 1/2SM -RA BR OVC003 09/08 A2945 RMK AO2 RAB55 P0000 T00890078 $
Conditions at: KILG (WILMINGTON , DE, US) observed 0558 UTC 27 February 2020
Temperature: 8.9°C (48°F)
Dewpoint: 7.8°C (46°F) [RH = 93%]
Pressure (altimeter): 29.45 inches Hg (997.4 mb)
Winds: calm
Visibility: 2.50 miles (4.02 km)
Ceiling: 300 feet AGL
Clouds: overcast cloud deck at 300 feet AGL
Weather: -RA BR  (light rain, mist)
SOME DATA ABOVE MAY BE INACCURATE!!!
"$" is an indication the sensor requires maintenance

METAR text: KILG 270551Z AUTO VRB03KT 3SM BR OVC003 09/08 A2945 RMK AO2 RAE23 SLP971 P0001 60010 T00890078 10100 20083 56064 $
Conditions at: KILG (WILMINGTON , DE, US) observed 0551 UTC 27 February 2020
Temperature: 8.9°C (48°F)
Dewpoint: 7.8°C (46°F) [RH = 93%]
Pressure (altimeter): 29.45 inches Hg (997.4 mb)
[Sea-level pressure:  997.1 mb]
Winds: variable direction winds at 3 MPH (3 knots; 1.5 m/s)
Visibility: 3 miles ( 5 km)
Ceiling: 300 feet AGL
Clouds: overcast cloud deck at 300 feet AGL
Weather: BR  (mist)
SOME DATA ABOVE MAY BE INACCURATE!!!
"$" is an indication the sensor requires maintenance

METAR text: KILG 270451Z AUTO 13009KT 3SM -RA BR OVC004 08/07 A2950 RMK AO2 SLP989 P0009 T00830072 401060078 $
Conditions at: KILG (WILMINGTON , DE, US) observed 0451 UTC 27 February 2020
Temperature: 8.3°C (47°F)
Dewpoint: 7.2°C (45°F) [RH = 93%]
Pressure (altimeter): 29.50 inches Hg (999.1 mb)
[Sea-level pressure:  998.9 mb]
Winds: from the SE (130 degrees) at 10 MPH (9 knots; 4.6 m/s)
Visibility: 3 miles ( 5 km)
Ceiling: 400 feet AGL
Clouds: overcast cloud deck at 400 feet AGL
Weather: -RA BR  (light rain, mist)
SOME DATA ABOVE MAY BE INACCURATE!!!
"$" is an indication the sensor requires maintenance

METAR text: KILG 270442Z AUTO 10012KT 2 1/2SM -RA BR OVC004 08/07 A2949 RMK AO2 PRESFR P0006 T00830072 $
Conditions at: KILG (WILMINGTON , DE, US) observed 0442 UTC 27 February 2020
Temperature: 8.3°C (47°F)
Dewpoint: 7.2°C (45°F) [RH = 93%]
Pressure (altimeter): 29.49 inches Hg (998.7 mb)
Winds: from the E (100 degrees) at 14 MPH (12 knots; 6.2 m/s)
Visibility: 2.50 miles (4.02 km)
Ceiling: 400 feet AGL
Clouds: overcast cloud deck at 400 feet AGL
Weather: -RA BR  (light rain, mist)
SOME DATA ABOVE MAY BE INACCURATE!!!
"$" is an indication the sensor requires maintenance

METAR text: KILG 270351Z 09006G16KT 7SM -RA OVC004 08/07 A2956 RMK AO2 RAB48 SLP008 P0000 T00830072 $
Conditions at: KILG (WILMINGTON , DE, US) observed 0351 UTC 27 February 2020
Temperature: 8.3°C (47°F)
Dewpoint: 7.2°C (45°F) [RH = 93%]
Pressure (altimeter): 29.56 inches Hg (1001.1 mb)
[Sea-level pressure: 1000.8 mb]
Winds: from the E (90 degrees) at 7 MPH (6 knots; 3.1 m/s)
gusting to 18 MPH (16 knots; 8.2 m/s)
Visibility: 7 miles (11 km)
Ceiling: 400 feet AGL
Clouds: overcast cloud deck at 400 feet AGL
Weather: -RA  (light rain)
SOME DATA ABOVE MAY BE INACCURATE!!!
"$" is an indication the sensor requires maintenance

METAR text: KILG 270336Z 09010KT 10SM OVC004 08/07 A2957 RMK AO2 PRESFR T00830067 $
Conditions at: KILG (WILMINGTON , DE, US) observed 0336 UTC 27 February 2020
Temperature: 8.3°C (47°F)
Dewpoint: 6.7°C (44°F) [RH = 90%]
Pressure (altimeter): 29.57 inches Hg (1001.4 mb)
Winds: from the E (90 degrees) at 12 MPH (10 knots; 5.1 m/s)
Visibility: 10 or more miles (16+ km)
Ceiling: 400 feet AGL
Clouds: overcast cloud deck at 400 feet AGL
Weather:
SOME DATA ABOVE MAY BE INACCURATE!!!
"$" is an indication the sensor requires maintenance

METAR text: KILG 270251Z 10008KT 10SM OVC005 08/07 A2964 RMK AO2 PRESFR SLP035 T00830067 58045 $
Conditions at: KILG (WILMINGTON , DE, US) observed 0251 UTC 27 February 2020
Temperature: 8.3°C (47°F)
Dewpoint: 6.7°C (44°F) [RH = 90%]
Pressure (altimeter): 29.64 inches Hg (1003.8 mb)
[Sea-level pressure: 1003.5 mb]
Winds: from the E (100 degrees) at 9 MPH (8 knots; 4.1 m/s)
Visibility: 10 or more miles (16+ km)
Ceiling: 500 feet AGL
Clouds: overcast cloud deck at 500 feet AGL
Weather:
SOME DATA ABOVE MAY BE INACCURATE!!!
"$" is an indication the sensor requires maintenance

METAR text: KILG 270151Z 10010KT 10SM OVC007 09/07 A2969 RMK AO2 SLP054 T00890067 $
Conditions at: KILG (WILMINGTON , DE, US) observed 0151 UTC 27 February 2020
Temperature: 8.9°C (48°F)
Dewpoint: 6.7°C (44°F) [RH = 86%]
Pressure (altimeter): 29.69 inches Hg (1005.5 mb)
[Sea-level pressure: 1005.4 mb]
Winds: from the E (100 degrees) at 12 MPH (10 knots; 5.1 m/s)
Visibility: 10 or more miles (16+ km)
Ceiling: 700 feet AGL
Clouds: overcast cloud deck at 700 feet AGL
Weather:
SOME DATA ABOVE MAY BE INACCURATE!!!
"$" is an indication the sensor requires maintenance

METAR text: KILG 270051Z 10012KT 10SM OVC007 09/07 A2973 RMK AO2 SLP066 T00890072 $
Conditions at: KILG (WILMINGTON , DE, US) observed 0051 UTC 27 February 2020
Temperature: 8.9°C (48°F)
Dewpoint: 7.2°C (45°F) [RH = 89%]
Pressure (altimeter): 29.73 inches Hg (1006.9 mb)
[Sea-level pressure: 1006.6 mb]
Winds: from the E (100 degrees) at 14 MPH (12 knots; 6.2 m/s)
Visibility: 10 or more miles (16+ km)
Ceiling: 700 feet AGL
Clouds: overcast cloud deck at 700 feet AGL
Weather:
SOME DATA ABOVE MAY BE INACCURATE!!!
"$" is an indication the sensor requires maintenance

METAR text: KILG 262351Z 12009KT 10SM OVC009 10/08 A2977 RMK AO2 SLP080 T01000078 10106 20094 56021 $
Conditions at: KILG (WILMINGTON , DE, US) observed 2351 UTC 26 February 2020
Temperature: 10.0°C (50°F)
Dewpoint: 7.8°C (46°F) [RH = 86%]
Pressure (altimeter): 29.77 inches Hg (1008.2 mb)
[Sea-level pressure: 1008.0 mb]
Winds: from the ESE (120 degrees) at 10 MPH (9 knots; 4.6 m/s)
Visibility: 10 or more miles (16+ km)
Ceiling: 900 feet AGL
Clouds: overcast cloud deck at 900 feet AGL
Weather:
SOME DATA ABOVE MAY BE INACCURATE!!!
"$" is an indication the sensor requires maintenance

METAR text: KILG 262255Z 10008KT 10SM OVC009 10/08 A2978 RMK AO2 T01000078
Conditions at: KILG (WILMINGTON , DE, US) observed 2255 UTC 26 February 2020
Temperature: 10.0°C (50°F)
Dewpoint: 7.8°C (46°F) [RH = 86%]
Pressure (altimeter): 29.78 inches Hg (1008.5 mb)
Winds: from the E (100 degrees) at 9 MPH (8 knots; 4.1 m/s)
Visibility: 10 or more miles (16+ km)
Ceiling: 900 feet AGL
Clouds: overcast cloud deck at 900 feet AGL
Weather: no significant weather observed at this time

METAR text: KILG 262251Z AUTO 10009KT 10SM OVC010 10/08 A2978 RMK AO2 SLP085 T01000078
Conditions at: KILG (WILMINGTON , DE, US) observed 2251 UTC 26 February 2020
Temperature: 10.0°C (50°F)
Dewpoint: 7.8°C (46°F) [RH = 86%]
Pressure (altimeter): 29.78 inches Hg (1008.5 mb)
[Sea-level pressure: 1008.5 mb]
Winds: from the E (100 degrees) at 10 MPH (9 knots; 4.6 m/s)
Visibility: 10 or more miles (16+ km)
Ceiling: 1000 feet AGL
Clouds: overcast cloud deck at 1000 feet AGL
Weather: automated observation with no human augmentation;
there may or may not be significant weather present at this time

METAR text: KILG 262151Z AUTO 09009KT 10SM OVC011 11/07 A2979 RMK AO2 SLP086 T01060072
Conditions at: KILG (WILMINGTON , DE, US) observed 2151 UTC 26 February 2020
Temperature: 10.6°C (51°F)
Dewpoint: 7.2°C (45°F) [RH = 79%]
Pressure (altimeter): 29.79 inches Hg (1008.9 mb)
[Sea-level pressure: 1008.6 mb]
Winds: from the E (90 degrees) at 10 MPH (9 knots; 4.6 m/s)
Visibility: 10 or more miles (16+ km)
Ceiling: 1100 feet AGL
Clouds: overcast cloud deck at 1100 feet AGL
Weather: automated observation with no human augmentation;
there may or may not be significant weather present at this time

METAR text: KILG 262051Z 11006KT 10SM OVC011 11/07 A2983 RMK AO2 SLP102 T01060072 58021
Conditions at: KILG (WILMINGTON , DE, US) observed 2051 UTC 26 February 2020
Temperature: 10.6°C (51°F)
Dewpoint: 7.2°C (45°F) [RH = 79%]
Pressure (altimeter): 29.83 inches Hg (1010.2 mb)
[Sea-level pressure: 1010.2 mb]
Winds: from the ESE (110 degrees) at 7 MPH (6 knots; 3.1 m/s)
Visibility: 10 or more miles (16+ km)
Ceiling: 1100 feet AGL
Clouds: overcast cloud deck at 1100 feet AGL
Weather: no significant weather observed at this time

METAR text: KILG 262011Z 11006KT 10SM OVC011 10/07 A2984 RMK AO2 T01000072
Conditions at: KILG (WILMINGTON , DE, US) observed 2011 UTC 26 February 2020
Temperature: 10.0°C (50°F)
Dewpoint: 7.2°C (45°F) [RH = 83%]
Pressure (altimeter): 29.84 inches Hg (1010.6 mb)
Winds: from the ESE (110 degrees) at 7 MPH (6 knots; 3.1 m/s)
Visibility: 10 or more miles (16+ km)
Ceiling: 1100 feet AGL
Clouds: overcast cloud deck at 1100 feet AGL
Weather: no significant weather observed at this time

METAR text: KILG 261951Z 10006KT 10SM OVC009 10/07 A2986 RMK AO2 SLP109 T01000072
Conditions at: KILG (WILMINGTON , DE, US) observed 1951 UTC 26 February 2020
Temperature: 10.0°C (50°F)
Dewpoint: 7.2°C (45°F) [RH = 83%]
Pressure (altimeter): 29.86 inches Hg (1011.3 mb)
[Sea-level pressure: 1010.9 mb]
Winds: from the E (100 degrees) at 7 MPH (6 knots; 3.1 m/s)
Visibility: 10 or more miles (16+ km)
Ceiling: 900 feet AGL
Clouds: overcast cloud deck at 900 feet AGL
Weather: no significant weather observed at this time

METAR text: KILG 261851Z 09005KT 10SM OVC009 10/07 A2987 RMK AO2 SLP115 T01000072
Conditions at: KILG (WILMINGTON , DE, US) observed 1851 UTC 26 February 2020
Temperature: 10.0°C (50°F)
Dewpoint: 7.2°C (45°F) [RH = 83%]
Pressure (altimeter): 29.87 inches Hg (1011.6 mb)
[Sea-level pressure: 1011.5 mb]
Winds: from the E (90 degrees) at 6 MPH (5 knots; 2.6 m/s)
Visibility: 10 or more miles (16+ km)
Ceiling: 900 feet AGL
Clouds: overcast cloud deck at 900 feet AGL
Weather: no significant weather observed at this time

METAR text: KILG 261751Z 12004KT 10SM OVC006 09/07 A2989 RMK AO2 SLP123 T00940072 10094 20078 58025
Conditions at: KILG (WILMINGTON , DE, US) observed 1751 UTC 26 February 2020
Temperature: 9.4°C (49°F)
Dewpoint: 7.2°C (45°F) [RH = 86%]
Pressure (altimeter): 29.89 inches Hg (1012.3 mb)
[Sea-level pressure: 1012.3 mb]
Winds: from the ESE (120 degrees) at 5 MPH (4 knots; 2.1 m/s)
Visibility: 10 or more miles (16+ km)
Ceiling: 600 feet AGL
Clouds: overcast cloud deck at 600 feet AGL
Weather: no significant weather observed at this time

METAR text: KILG 261651Z 12005KT 10SM OVC005 09/07 A2992 RMK AO2 SLP130 T00890072
Conditions at: KILG (WILMINGTON , DE, US) observed 1651 UTC 26 February 2020
Temperature: 8.9°C (48°F)
Dewpoint: 7.2°C (45°F) [RH = 89%]
Pressure (altimeter): 29.92 inches Hg (1013.3 mb)
[Sea-level pressure: 1013.0 mb]
Winds: from the ESE (120 degrees) at 6 MPH (5 knots; 2.6 m/s)
Visibility: 10 or more miles (16+ km)
Ceiling: 500 feet AGL
Clouds: overcast cloud deck at 500 feet AGL
Weather: no significant weather observed at this time

METAR text: KILG 261551Z VRB03KT 10SM OVC005 09/07 A2995 RMK AO2 SLP142 T00890067
Conditions at: KILG (WILMINGTON , DE, US) observed 1551 UTC 26 February 2020
Temperature: 8.9°C (48°F)
Dewpoint: 6.7°C (44°F) [RH = 86%]
Pressure (altimeter): 29.95 inches Hg (1014.3 mb)
[Sea-level pressure: 1014.2 mb]
Winds: variable direction winds at 3 MPH (3 knots; 1.5 m/s)
Visibility: 10 or more miles (16+ km)
Ceiling: 500 feet AGL
Clouds: overcast cloud deck at 500 feet AGL
Weather: no significant weather observed at this time

METAR text: KILG 261528Z 10004KT 6SM BR OVC003 08/07 A2996 RMK AO2 T00830067
Conditions at: KILG (WILMINGTON , DE, US) observed 1528 UTC 26 February 2020
Temperature: 8.3°C (47°F)
Dewpoint: 6.7°C (44°F) [RH = 90%]
Pressure (altimeter): 29.96 inches Hg (1014.6 mb)
Winds: from the E (100 degrees) at 5 MPH (4 knots; 2.1 m/s)
Visibility: 6 miles (10 km)
Ceiling: 300 feet AGL
Clouds: overcast cloud deck at 300 feet AGL
Weather: BR  (mist)

METAR text: KILG 261521Z 18003KT 2 1/2SM BR OVC003 08/07 A2996 RMK AO2 T00780072
Conditions at: KILG (WILMINGTON , DE, US) observed 1521 UTC 26 February 2020
Temperature: 7.8°C (46°F)
Dewpoint: 7.2°C (45°F) [RH = 96%]
Pressure (altimeter): 29.96 inches Hg (1014.6 mb)
Winds: from the S (180 degrees) at 3 MPH (3 knots; 1.5 m/s)
Visibility: 2.50 miles (4.02 km)
Ceiling: 300 feet AGL
Clouds: overcast cloud deck at 300 feet AGL
Weather: BR  (mist)

METAR text: KILG 261451Z 13005KT 4SM BR OVC003 08/07 A2997 RMK AO2 SLP148 T00780072 51017
Conditions at: KILG (WILMINGTON , DE, US) observed 1451 UTC 26 February 2020
Temperature: 7.8°C (46°F)
Dewpoint: 7.2°C (45°F) [RH = 96%]
Pressure (altimeter): 29.97 inches Hg (1015.0 mb)
[Sea-level pressure: 1014.8 mb]
Winds: from the SE (130 degrees) at 6 MPH (5 knots; 2.6 m/s)
Visibility: 4 miles ( 6 km)
Ceiling: 300 feet AGL
Clouds: overcast cloud deck at 300 feet AGL
Weather: BR  (mist)

METAR text: KILG 261432Z 14003KT 3SM BR OVC002 08/07 A2997 RMK AO2 T00780072
Conditions at: KILG (WILMINGTON , DE, US) observed 1432 UTC 26 February 2020
Temperature: 7.8°C (46°F)
Dewpoint: 7.2°C (45°F) [RH = 96%]
Pressure (altimeter): 29.97 inches Hg (1015.0 mb)
Winds: from the SE (140 degrees) at 3 MPH (3 knots; 1.5 m/s)
Visibility: 3 miles ( 5 km)
Ceiling: 200 feet AGL
Clouds: overcast cloud deck at 200 feet AGL
Weather: BR  (mist)

METAR text: KILG 261403Z 09005KT 2SM R01/6000VP6000FT BR OVC002 08/07 A2996 RMK AO2 T00830072
Conditions at: KILG (WILMINGTON , DE, US) observed 1403 UTC 26 February 2020
Temperature: 8.3°C (47°F)
Dewpoint: 7.2°C (45°F) [RH = 93%]
Pressure (altimeter): 29.96 inches Hg (1014.6 mb)
Winds: from the E (90 degrees) at 6 MPH (5 knots; 2.6 m/s)
Visibility: 2.00 miles (3.22 km)
Ceiling: 200 feet AGL
Clouds: overcast cloud deck at 200 feet AGL
Weather: BR  (mist)

METAR text: KILG 261351Z 09007KT 1/2SM R01/2800V5000FT FG OVC002 08/07 A2995 RMK AO2 SLP141 T00780072
Conditions at: KILG (WILMINGTON , DE, US) observed 1351 UTC 26 February 2020
Temperature: 7.8°C (46°F)
Dewpoint: 7.2°C (45°F) [RH = 96%]
Pressure (altimeter): 29.95 inches Hg (1014.3 mb)
[Sea-level pressure: 1014.1 mb]
Winds: from the E (90 degrees) at 8 MPH (7 knots; 3.6 m/s)
Visibility: 0.50 miles (0.80 km)
Ceiling: 200 feet AGL
Clouds: overcast cloud deck at 200 feet AGL
Weather: FG  (fog)

METAR text: KILG 261323Z 07006KT 1/2SM R01/5500VP6000FT FG OVC004 08/07 A2994 RMK AO2 T00830072
Conditions at: KILG (WILMINGTON , DE, US) observed 1323 UTC 26 February 2020
Temperature: 8.3°C (47°F)
Dewpoint: 7.2°C (45°F) [RH = 93%]
Pressure (altimeter): 29.94 inches Hg (1014.0 mb)
Winds: from the ENE (70 degrees) at 7 MPH (6 knots; 3.1 m/s)
Visibility: 0.50 miles (0.80 km)
Ceiling: 400 feet AGL
Clouds: overcast cloud deck at 400 feet AGL
Weather: FG  (fog)

METAR text: KILG 261316Z 06006KT 2SM BR OVC004 08/07 A2994 RMK AO2 T00830072
Conditions at: KILG (WILMINGTON , DE, US) observed 1316 UTC 26 February 2020
Temperature: 8.3°C (47°F)
Dewpoint: 7.2°C (45°F) [RH = 93%]
Pressure (altimeter): 29.94 inches Hg (1014.0 mb)
Winds: from the ENE (60 degrees) at 7 MPH (6 knots; 3.1 m/s)
Visibility: 2.00 miles (3.22 km)
Ceiling: 400 feet AGL
Clouds: overcast cloud deck at 400 feet AGL
Weather: BR  (mist)

METAR text: KILG 261306Z 06005KT 3SM BR OVC003 08/07 A2994 RMK AO2 T00830067
Conditions at: KILG (WILMINGTON , DE, US) observed 1306 UTC 26 February 2020
Temperature: 8.3°C (47°F)
Dewpoint: 6.7°C (44°F) [RH = 90%]
Pressure (altimeter): 29.94 inches Hg (1014.0 mb)
Winds: from the ENE (60 degrees) at 6 MPH (5 knots; 2.6 m/s)
Visibility: 3 miles ( 5 km)
Ceiling: 300 feet AGL
Clouds: overcast cloud deck at 300 feet AGL
Weather: BR  (mist)

METAR text: KILG 261254Z 07006KT 2SM R01/5000VP6000FT BR OVC003 08/07 A2994 RMK AO2 T00830072
Conditions at: KILG (WILMINGTON , DE, US) observed 1254 UTC 26 February 2020
Temperature: 8.3°C (47°F)
Dewpoint: 7.2°C (45°F) [RH = 93%]
Pressure (altimeter): 29.94 inches Hg (1014.0 mb)
Winds: from the ENE (70 degrees) at 7 MPH (6 knots; 3.1 m/s)
Visibility: 2.00 miles (3.22 km)
Ceiling: 300 feet AGL
Clouds: overcast cloud deck at 300 feet AGL
Weather: BR  (mist)

METAR text: KILG 261251Z 07006KT 1/2SM R01/5000VP6000FT FG OVC003 08/07 A2994 RMK AO2 SLP138 T00830072
Conditions at: KILG (WILMINGTON , DE, US) observed 1251 UTC 26 February 2020
Temperature: 8.3°C (47°F)
Dewpoint: 7.2°C (45°F) [RH = 93%]
Pressure (altimeter): 29.94 inches Hg (1014.0 mb)
[Sea-level pressure: 1013.8 mb]
Winds: from the ENE (70 degrees) at 7 MPH (6 knots; 3.1 m/s)
Visibility: 0.50 miles (0.80 km)
Ceiling: 300 feet AGL
Clouds: overcast cloud deck at 300 feet AGL
Weather: FG  (fog)

METAR text: KILG 261206Z 11004KT 1/2SM R01/4000VP6000FT BR OVC003 08/07 A2992 RMK AO2 SFC VIS 1 T00780072
Conditions at: KILG (WILMINGTON , DE, US) observed 1206 UTC 26 February 2020
Temperature: 7.8°C (46°F)
Dewpoint: 7.2°C (45°F) [RH = 96%]
Pressure (altimeter): 29.92 inches Hg (1013.3 mb)
Winds: from the ESE (110 degrees) at 5 MPH (4 knots; 2.1 m/s)
Visibility: 0.50 miles (0.80 km)
Ceiling: 300 feet AGL
Clouds: overcast cloud deck at 300 feet AGL
Weather: BR  (mist)

METAR text: KILG 261158Z 10003KT 1 3/4SM R01/4000VP6000FT BR OVC003 08/07 A2992 RMK AO2 T00780072
Conditions at: KILG (WILMINGTON , DE, US) observed 1158 UTC 26 February 2020
Temperature: 7.8°C (46°F)
Dewpoint: 7.2°C (45°F) [RH = 96%]
Pressure (altimeter): 29.92 inches Hg (1013.3 mb)
Winds: from the E (100 degrees) at 3 MPH (3 knots; 1.5 m/s)
Visibility: 1.75 miles (2.82 km)
Ceiling: 300 feet AGL
Clouds: overcast cloud deck at 300 feet AGL
Weather: BR  (mist)

METAR text: KILG 261151Z 07004KT 3SM BR OVC003 08/07 A2992 RMK AO2 SLP131 70025 T00780067 10083 20078 51013
Conditions at: KILG (WILMINGTON , DE, US) observed 1151 UTC 26 February 2020
Temperature: 7.8°C (46°F)
Dewpoint: 6.7°C (44°F) [RH = 93%]
Pressure (altimeter): 29.92 inches Hg (1013.3 mb)
[Sea-level pressure: 1013.1 mb]
Winds: from the ENE (70 degrees) at 5 MPH (4 knots; 2.1 m/s)
Visibility: 3 miles ( 5 km)
Ceiling: 300 feet AGL
Clouds: overcast cloud deck at 300 feet AGL
Weather: BR  (mist)

METAR text: KILG 261119Z AUTO 07003KT 2SM BR OVC003 08/07 A2990 RMK AO2 T00780072
Conditions at: KILG (WILMINGTON , DE, US) observed 1119 UTC 26 February 2020
Temperature: 7.8°C (46°F)
Dewpoint: 7.2°C (45°F) [RH = 96%]
Pressure (altimeter): 29.90 inches Hg (1012.6 mb)
Winds: from the ENE (70 degrees) at 3 MPH (3 knots; 1.5 m/s)
Visibility: 2.00 miles (3.22 km)
Ceiling: 300 feet AGL
Clouds: overcast cloud deck at 300 feet AGL
Weather: BR  (mist)

METAR text: KILG 261110Z AUTO 04004KT 3SM BR OVC003 08/07 A2990 RMK AO2 T00830072
Conditions at: KILG (WILMINGTON , DE, US) observed 1110 UTC 26 February 2020
Temperature: 8.3°C (47°F)
Dewpoint: 7.2°C (45°F) [RH = 93%]
Pressure (altimeter): 29.90 inches Hg (1012.6 mb)
Winds: from the NE (40 degrees) at 5 MPH (4 knots; 2.1 m/s)
Visibility: 3 miles ( 5 km)
Ceiling: 300 feet AGL
Clouds: overcast cloud deck at 300 feet AGL
Weather: BR  (mist)

METAR text: KILG 261051Z AUTO 05005KT 2 1/2SM BR OVC003 08/07 A2989 RMK AO2 SLP122 T00780067
Conditions at: KILG (WILMINGTON , DE, US) observed 1051 UTC 26 February 2020
Temperature: 7.8°C (46°F)
Dewpoint: 6.7°C (44°F) [RH = 93%]
Pressure (altimeter): 29.89 inches Hg (1012.3 mb)
[Sea-level pressure: 1012.2 mb]
Winds: from the NE (50 degrees) at 6 MPH (5 knots; 2.6 m/s)
Visibility: 2.50 miles (4.02 km)
Ceiling: 300 feet AGL
Clouds: overcast cloud deck at 300 feet AGL
Weather: BR  (mist)

METAR text: KILG 261044Z AUTO 05004KT 2 1/2SM BR OVC003 08/07 A2989 RMK AO2 T00780067
Conditions at: KILG (WILMINGTON , DE, US) observed 1044 UTC 26 February 2020
Temperature: 7.8°C (46°F)
Dewpoint: 6.7°C (44°F) [RH = 93%]
Pressure (altimeter): 29.89 inches Hg (1012.3 mb)
Winds: from the NE (50 degrees) at 5 MPH (4 knots; 2.1 m/s)
Visibility: 2.50 miles (4.02 km)
Ceiling: 300 feet AGL
Clouds: overcast cloud deck at 300 feet AGL
Weather: BR  (mist)

METAR text: KILG 261032Z AUTO 06004KT 3SM BR OVC004 08/07 A2988 RMK AO2 CIG 002V007 T00830072
Conditions at: KILG (WILMINGTON , DE, US) observed 1032 UTC 26 February 2020
Temperature: 8.3°C (47°F)
Dewpoint: 7.2°C (45°F) [RH = 93%]
Pressure (altimeter): 29.88 inches Hg (1011.9 mb)
Winds: from the ENE (60 degrees) at 5 MPH (4 knots; 2.1 m/s)
Visibility: 3 miles ( 5 km)
Ceiling: 400 feet AGL
Clouds: overcast cloud deck at 400 feet AGL
Weather: BR  (mist)

METAR text: KILG 261011Z AUTO 05004KT 2 1/2SM BR OVC002 08/07 A2989 RMK AO2 T00830072
Conditions at: KILG (WILMINGTON , DE, US) observed 1011 UTC 26 February 2020
Temperature: 8.3°C (47°F)
Dewpoint: 7.2°C (45°F) [RH = 93%]
Pressure (altimeter): 29.89 inches Hg (1012.3 mb)
Winds: from the NE (50 degrees) at 5 MPH (4 knots; 2.1 m/s)
Visibility: 2.50 miles (4.02 km)
Ceiling: 200 feet AGL
Clouds: overcast cloud deck at 200 feet AGL
Weather: BR  (mist)

METAR text: KILG 261000Z AUTO 05005KT 1 3/4SM BR OVC002 08/07 A2988 RMK AO2 T00830072
Conditions at: KILG (WILMINGTON , DE, US) observed 1000 UTC 26 February 2020
Temperature: 8.3°C (47°F)
Dewpoint: 7.2°C (45°F) [RH = 93%]
Pressure (altimeter): 29.88 inches Hg (1011.9 mb)
Winds: from the NE (50 degrees) at 6 MPH (5 knots; 2.6 m/s)
Visibility: 1.75 miles (2.82 km)
Ceiling: 200 feet AGL
Clouds: overcast cloud deck at 200 feet AGL
Weather: BR  (mist)

METAR text: KILG 260951Z AUTO 06005KT 3/4SM R01/3000VP6000FT BR OVC002 08/07 A2988 RMK AO2 SLP119 T00830072
Conditions at: KILG (WILMINGTON , DE, US) observed 0951 UTC 26 February 2020
Temperature: 8.3°C (47°F)
Dewpoint: 7.2°C (45°F) [RH = 93%]
Pressure (altimeter): 29.88 inches Hg (1011.9 mb)
[Sea-level pressure: 1011.9 mb]
Winds: from the ENE (60 degrees) at 6 MPH (5 knots; 2.6 m/s)
Visibility: 0.75 miles (1.21 km)
Ceiling: 200 feet AGL
Clouds: overcast cloud deck at 200 feet AGL
Weather: BR  (mist)

METAR text: KILG 260947Z AUTO 06005KT 1/2SM R01/3000V4000FT FG VV002 08/07 A2988 RMK AO2
Conditions at: KILG (WILMINGTON , DE, US) observed 0947 UTC 26 February 2020
Temperature: 8.0°C (46°F)
Dewpoint: 7.0°C (45°F) [RH = 93%]
Pressure (altimeter): 29.88 inches Hg (1011.9 mb)
Winds: from the ENE (60 degrees) at 6 MPH (5 knots; 2.6 m/s)
Visibility: 0.50 miles (0.80 km)
Ceiling: indefinite ceiling with vertical visibility of 200 feet AGL
Clouds: obscured sky
Weather: FG  (fog)

METAR text: KILG 260936Z AUTO 07004KT 1 1/2SM BR OVC002 08/07 A2989 RMK AO2 T00830072
Conditions at: KILG (WILMINGTON , DE, US) observed 0936 UTC 26 February 2020
Temperature: 8.3°C (47°F)
Dewpoint: 7.2°C (45°F) [RH = 93%]
Pressure (altimeter): 29.89 inches Hg (1012.3 mb)
Winds: from the ENE (70 degrees) at 5 MPH (4 knots; 2.1 m/s)
Visibility: 1.50 miles (2.41 km)
Ceiling: 200 feet AGL
Clouds: overcast cloud deck at 200 feet AGL
Weather: BR  (mist)

METAR text: KILG 260927Z AUTO 06005KT 3/4SM R01/P6000FT BR OVC002 08/07 A2988 RMK AO2 T00830072
Conditions at: KILG (WILMINGTON , DE, US) observed 0927 UTC 26 February 2020
Temperature: 8.3°C (47°F)
Dewpoint: 7.2°C (45°F) [RH = 93%]
Pressure (altimeter): 29.88 inches Hg (1011.9 mb)
Winds: from the ENE (60 degrees) at 6 MPH (5 knots; 2.6 m/s)
Visibility: 0.75 miles (1.21 km)
Ceiling: 200 feet AGL
Clouds: overcast cloud deck at 200 feet AGL
Weather: BR  (mist)

METAR text: KILG 260915Z AUTO 05004KT 1SM R01/P6000FT BR OVC002 08/07 A2988 RMK AO2 T00830072
Conditions at: KILG (WILMINGTON , DE, US) observed 0915 UTC 26 February 2020
Temperature: 8.3°C (47°F)
Dewpoint: 7.2°C (45°F) [RH = 93%]
Pressure (altimeter): 29.88 inches Hg (1011.9 mb)
Winds: from the NE (50 degrees) at 5 MPH (4 knots; 2.1 m/s)
Visibility: 1.00 miles (1.61 km)
Ceiling: 200 feet AGL
Clouds: overcast cloud deck at 200 feet AGL
Weather: BR  (mist)

METAR text: KILG 260903Z AUTO 08003KT 3/4SM R01/P6000FT BR OVC002 08/07 A2988 RMK AO2 T00830072
Conditions at: KILG (WILMINGTON , DE, US) observed 0903 UTC 26 February 2020
Temperature: 8.3°C (47°F)
Dewpoint: 7.2°C (45°F) [RH = 93%]
Pressure (altimeter): 29.88 inches Hg (1011.9 mb)
Winds: from the E (80 degrees) at 3 MPH (3 knots; 1.5 m/s)
Visibility: 0.75 miles (1.21 km)
Ceiling: 200 feet AGL
Clouds: overcast cloud deck at 200 feet AGL
Weather: BR  (mist)

METAR text: KILG 260851Z AUTO 07005KT 1SM R01/P6000FT BR OVC002 08/07 A2988 RMK AO2 SLP119 T00830072 56002
Conditions at: KILG (WILMINGTON , DE, US) observed 0851 UTC 26 February 2020
Temperature: 8.3°C (47°F)
Dewpoint: 7.2°C (45°F) [RH = 93%]
Pressure (altimeter): 29.88 inches Hg (1011.9 mb)
[Sea-level pressure: 1011.9 mb]
Winds: from the ENE (70 degrees) at 6 MPH (5 knots; 2.6 m/s)
Visibility: 1.00 miles (1.61 km)
Ceiling: 200 feet AGL
Clouds: overcast cloud deck at 200 feet AGL
Weather: BR  (mist)

METAR text: KILG 260825Z AUTO 08003KT 1 3/4SM BR OVC003 08/07 A2989 RMK AO2 T00830072
Conditions at: KILG (WILMINGTON , DE, US) observed 0825 UTC 26 February 2020
Temperature: 8.3°C (47°F)
Dewpoint: 7.2°C (45°F) [RH = 93%]
Pressure (altimeter): 29.89 inches Hg (1012.3 mb)
Winds: from the E (80 degrees) at 3 MPH (3 knots; 1.5 m/s)
Visibility: 1.75 miles (2.82 km)
Ceiling: 300 feet AGL
Clouds: overcast cloud deck at 300 feet AGL
Weather: BR  (mist)

METAR text: KILG 260813Z AUTO 08003KT 4SM R01/6000VP6000FT BR OVC002 08/07 A2989 RMK AO2 T00830072
Conditions at: KILG (WILMINGTON , DE, US) observed 0813 UTC 26 February 2020
Temperature: 8.3°C (47°F)
Dewpoint: 7.2°C (45°F) [RH = 93%]
Pressure (altimeter): 29.89 inches Hg (1012.3 mb)
Winds: from the E (80 degrees) at 3 MPH (3 knots; 1.5 m/s)
Visibility: 4 miles ( 6 km)
Ceiling: 200 feet AGL
Clouds: overcast cloud deck at 200 feet AGL
Weather: BR  (mist)

METAR text: KILG 260801Z AUTO 07005KT 2SM BR OVC002 08/07 A2989 RMK AO2 T00830072
Conditions at: KILG (WILMINGTON , DE, US) observed 0801 UTC 26 February 2020
Temperature: 8.3°C (47°F)
Dewpoint: 7.2°C (45°F) [RH = 93%]
Pressure (altimeter): 29.89 inches Hg (1012.3 mb)
Winds: from the ENE (70 degrees) at 6 MPH (5 knots; 2.6 m/s)
Visibility: 2.00 miles (3.22 km)
Ceiling: 200 feet AGL
Clouds: overcast cloud deck at 200 feet AGL
Weather: BR  (mist)

METAR text: KILG 260751Z AUTO 05005KT 1 1/2SM BR OVC002 08/07 A2988 RMK AO2 SLP119 T00830072
Conditions at: KILG (WILMINGTON , DE, US) observed 0751 UTC 26 February 2020
Temperature: 8.3°C (47°F)
Dewpoint: 7.2°C (45°F) [RH = 93%]
Pressure (altimeter): 29.88 inches Hg (1011.9 mb)
[Sea-level pressure: 1011.9 mb]
Winds: from the NE (50 degrees) at 6 MPH (5 knots; 2.6 m/s)
Visibility: 1.50 miles (2.41 km)
Ceiling: 200 feet AGL
Clouds: overcast cloud deck at 200 feet AGL
Weather: BR  (mist)

METAR text: KILG 260721Z AUTO 05003KT 1 3/4SM BR OVC002 08/07 A2989 RMK AO2 T00830072
Conditions at: KILG (WILMINGTON , DE, US) observed 0721 UTC 26 February 2020
Temperature: 8.3°C (47°F)
Dewpoint: 7.2°C (45°F) [RH = 93%]
Pressure (altimeter): 29.89 inches Hg (1012.3 mb)
Winds: from the NE (50 degrees) at 3 MPH (3 knots; 1.5 m/s)
Visibility: 1.75 miles (2.82 km)
Ceiling: 200 feet AGL
Clouds: overcast cloud deck at 200 feet AGL
Weather: BR  (mist)

METAR text: KILG 260714Z AUTO 05005KT 3SM BR OVC002 08/07 A2989 RMK AO2 T00830072
Conditions at: KILG (WILMINGTON , DE, US) observed 0714 UTC 26 February 2020
Temperature: 8.3°C (47°F)
Dewpoint: 7.2°C (45°F) [RH = 93%]
Pressure (altimeter): 29.89 inches Hg (1012.3 mb)
Winds: from the NE (50 degrees) at 6 MPH (5 knots; 2.6 m/s)
Visibility: 3 miles ( 5 km)
Ceiling: 200 feet AGL
Clouds: overcast cloud deck at 200 feet AGL
Weather: BR  (mist)

METAR text: KILG 260701Z AUTO 05003KT 2SM R01/4500VP6000FT BR OVC002 08/08 A2989 RMK AO2 T00830078
Conditions at: KILG (WILMINGTON , DE, US) observed 0701 UTC 26 February 2020
Temperature: 8.3°C (47°F)
Dewpoint: 7.8°C (46°F) [RH = 97%]
Pressure (altimeter): 29.89 inches Hg (1012.3 mb)
Winds: from the NE (50 degrees) at 3 MPH (3 knots; 1.5 m/s)
Visibility: 2.00 miles (3.22 km)
Ceiling: 200 feet AGL
Clouds: overcast cloud deck at 200 feet AGL
Weather: BR  (mist)

METAR text: KILG 260651Z AUTO 06005KT 1/2SM R01/3500V4500FT FG VV002 08/07 A2989 RMK AO2 SLP121 T00830072
Conditions at: KILG (WILMINGTON , DE, US) observed 0651 UTC 26 February 2020
Temperature: 8.3°C (47°F)
Dewpoint: 7.2°C (45°F) [RH = 93%]
Pressure (altimeter): 29.89 inches Hg (1012.3 mb)
[Sea-level pressure: 1012.1 mb]
Winds: from the ENE (60 degrees) at 6 MPH (5 knots; 2.6 m/s)
Visibility: 0.50 miles (0.80 km)
Ceiling: indefinite ceiling with vertical visibility of 200 feet AGL
Clouds: obscured sky
Weather: FG  (fog)

METAR text: KILG 260644Z AUTO 06005KT 3/4SM R01/4000V6000FT BR VV002 08/07 A2989 RMK AO2 T00830072
Conditions at: KILG (WILMINGTON , DE, US) observed 0644 UTC 26 February 2020
Temperature: 8.3°C (47°F)
Dewpoint: 7.2°C (45°F) [RH = 93%]
Pressure (altimeter): 29.89 inches Hg (1012.3 mb)
Winds: from the ENE (60 degrees) at 6 MPH (5 knots; 2.6 m/s)
Visibility: 0.75 miles (1.21 km)
Ceiling: indefinite ceiling with vertical visibility of 200 feet AGL
Clouds: obscured sky
Weather: BR  (mist)

METAR text: KILG 260628Z AUTO 05005KT 1 1/2SM BR OVC002 08/07 A2989 RMK AO2 T00830072
Conditions at: KILG (WILMINGTON , DE, US) observed 0628 UTC 26 February 2020
Temperature: 8.3°C (47°F)
Dewpoint: 7.2°C (45°F) [RH = 93%]
Pressure (altimeter): 29.89 inches Hg (1012.3 mb)
Winds: from the NE (50 degrees) at 6 MPH (5 knots; 2.6 m/s)
Visibility: 1.50 miles (2.41 km)
Ceiling: 200 feet AGL
Clouds: overcast cloud deck at 200 feet AGL
Weather: BR  (mist)

METAR text: KILG 260611Z AUTO 04004KT 2 1/2SM BR OVC002 08/08 A2989 RMK AO2 T00830078
Conditions at: KILG (WILMINGTON , DE, US) observed 0611 UTC 26 February 2020
Temperature: 8.3°C (47°F)
Dewpoint: 7.8°C (46°F) [RH = 97%]
Pressure (altimeter): 29.89 inches Hg (1012.3 mb)
Winds: from the NE (40 degrees) at 5 MPH (4 knots; 2.1 m/s)
Visibility: 2.50 miles (4.02 km)
Ceiling: 200 feet AGL
Clouds: overcast cloud deck at 200 feet AGL
Weather: BR  (mist)

METAR text: KILG 260603Z AUTO 05005KT 1 3/4SM BR OVC002 08/08 A2989 RMK AO2 T00830078
Conditions at: KILG (WILMINGTON , DE, US) observed 0603 UTC 26 February 2020
Temperature: 8.3°C (47°F)
Dewpoint: 7.8°C (46°F) [RH = 97%]
Pressure (altimeter): 29.89 inches Hg (1012.3 mb)
Winds: from the NE (50 degrees) at 6 MPH (5 knots; 2.6 m/s)
Visibility: 1.75 miles (2.82 km)
Ceiling: 200 feet AGL
Clouds: overcast cloud deck at 200 feet AGL
Weather: BR  (mist)

METAR text: KILG 260551Z AUTO 06004KT 2SM BR OVC003 08/08 A2989 RMK AO2 SLP121 T00830078 10100 20083 51008
Conditions at: KILG (WILMINGTON , DE, US) observed 0551 UTC 26 February 2020
Temperature: 8.3°C (47°F)
Dewpoint: 7.8°C (46°F) [RH = 97%]
Pressure (altimeter): 29.89 inches Hg (1012.3 mb)
[Sea-level pressure: 1012.1 mb]
Winds: from the ENE (60 degrees) at 5 MPH (4 knots; 2.1 m/s)
Visibility: 2.00 miles (3.22 km)
Ceiling: 300 feet AGL
Clouds: overcast cloud deck at 300 feet AGL
Weather: BR  (mist)

METAR text: KILG 260523Z AUTO 07004KT 3SM BR OVC002 08/08 A2989 RMK AO2 T00830078
Conditions at: KILG (WILMINGTON , DE, US) observed 0523 UTC 26 February 2020
Temperature: 8.3°C (47°F)
Dewpoint: 7.8°C (46°F) [RH = 97%]
Pressure (altimeter): 29.89 inches Hg (1012.3 mb)
Winds: from the ENE (70 degrees) at 5 MPH (4 knots; 2.1 m/s)
Visibility: 3 miles ( 5 km)
Ceiling: 200 feet AGL
Clouds: overcast cloud deck at 200 feet AGL
Weather: BR  (mist)

METAR text: KILG 260507Z AUTO 08006KT 1 1/2SM BR OVC002 09/08 A2988 RMK AO2 T00890078
Conditions at: KILG (WILMINGTON , DE, US) observed 0507 UTC 26 February 2020
Temperature: 8.9°C (48°F)
Dewpoint: 7.8°C (46°F) [RH = 93%]
Pressure (altimeter): 29.88 inches Hg (1011.9 mb)
Winds: from the E (80 degrees) at 7 MPH (6 knots; 3.1 m/s)
Visibility: 1.50 miles (2.41 km)
Ceiling: 200 feet AGL
Clouds: overcast cloud deck at 200 feet AGL
Weather: BR  (mist)

METAR text: KILG 260451Z AUTO 06004KT 2 1/2SM BR OVC002 09/08 A2988 RMK AO2 SLP119 T00890078 401060067
Conditions at: KILG (WILMINGTON , DE, US) observed 0451 UTC 26 February 2020
Temperature: 8.9°C (48°F)
Dewpoint: 7.8°C (46°F) [RH = 93%]
Pressure (altimeter): 29.88 inches Hg (1011.9 mb)
[Sea-level pressure: 1011.9 mb]
Winds: from the ENE (60 degrees) at 5 MPH (4 knots; 2.1 m/s)
Visibility: 2.50 miles (4.02 km)
Ceiling: 200 feet AGL
Clouds: overcast cloud deck at 200 feet AGL
Weather: BR  (mist)

METAR text: KILG 260441Z AUTO 04005KT 1 1/2SM BR OVC002 09/08 A2989 RMK AO2 T00890078
Conditions at: KILG (WILMINGTON , DE, US) observed 0441 UTC 26 February 2020
Temperature: 8.9°C (48°F)
Dewpoint: 7.8°C (46°F) [RH = 93%]
Pressure (altimeter): 29.89 inches Hg (1012.3 mb)
Winds: from the NE (40 degrees) at 6 MPH (5 knots; 2.6 m/s)
Visibility: 1.50 miles (2.41 km)
Ceiling: 200 feet AGL
Clouds: overcast cloud deck at 200 feet AGL
Weather: BR  (mist)

METAR text: KILG 260428Z AUTO 05005KT 2SM BR OVC002 09/08 A2988 RMK AO2 T00890083
Conditions at: KILG (WILMINGTON , DE, US) observed 0428 UTC 26 February 2020
Temperature: 8.9°C (48°F)
Dewpoint: 8.3°C (47°F) [RH = 96%]
Pressure (altimeter): 29.88 inches Hg (1011.9 mb)
Winds: from the NE (50 degrees) at 6 MPH (5 knots; 2.6 m/s)
Visibility: 2.00 miles (3.22 km)
Ceiling: 200 feet AGL
Clouds: overcast cloud deck at 200 feet AGL
Weather: BR  (mist)

METAR text: KILG 260409Z AUTO 06003KT 3SM BR OVC002 09/08 A2988 RMK AO2 T00890083
Conditions at: KILG (WILMINGTON , DE, US) observed 0409 UTC 26 February 2020
Temperature: 8.9°C (48°F)
Dewpoint: 8.3°C (47°F) [RH = 96%]
Pressure (altimeter): 29.88 inches Hg (1011.9 mb)
Winds: from the ENE (60 degrees) at 3 MPH (3 knots; 1.5 m/s)
Visibility: 3 miles ( 5 km)
Ceiling: 200 feet AGL
Clouds: overcast cloud deck at 200 feet AGL
Weather: BR  (mist)

METAR text: KILG 260351Z 08004KT 1 1/4SM BR OVC002 09/08 A2988 RMK AO2 SLP117 T00890083
Conditions at: KILG (WILMINGTON , DE, US) observed 0351 UTC 26 February 2020
Temperature: 8.9°C (48°F)
Dewpoint: 8.3°C (47°F) [RH = 96%]
Pressure (altimeter): 29.88 inches Hg (1011.9 mb)
[Sea-level pressure: 1011.7 mb]
Winds: from the E (80 degrees) at 5 MPH (4 knots; 2.1 m/s)
Visibility: 1.25 miles (2.01 km)
Ceiling: 200 feet AGL
Clouds: overcast cloud deck at 200 feet AGL
Weather: BR  (mist)

METAR text: KILG 260342Z 07005KT 2 1/2SM BR OVC002 09/08 A2988 RMK AO2 T00890083
Conditions at: KILG (WILMINGTON , DE, US) observed 0342 UTC 26 February 2020
Temperature: 8.9°C (48°F)
Dewpoint: 8.3°C (47°F) [RH = 96%]
Pressure (altimeter): 29.88 inches Hg (1011.9 mb)
Winds: from the ENE (70 degrees) at 6 MPH (5 knots; 2.6 m/s)
Visibility: 2.50 miles (4.02 km)
Ceiling: 200 feet AGL
Clouds: overcast cloud deck at 200 feet AGL
Weather: BR  (mist)

METAR text: KILG 260259Z 10004KT 1 3/4SM BR OVC004 09/08 A2987 RMK AO2 T00940083
Conditions at: KILG (WILMINGTON , DE, US) observed 0259 UTC 26 February 2020
Temperature: 9.4°C (49°F)
Dewpoint: 8.3°C (47°F) [RH = 93%]
Pressure (altimeter): 29.87 inches Hg (1011.6 mb)
Winds: from the E (100 degrees) at 5 MPH (4 knots; 2.1 m/s)
Visibility: 1.75 miles (2.82 km)
Ceiling: 400 feet AGL
Clouds: overcast cloud deck at 400 feet AGL
Weather: BR  (mist)

METAR text: KILG 260251Z 08007KT 4SM BR OVC004 09/08 A2986 RMK AO2 SLP113 T00940083 51003
Conditions at: KILG (WILMINGTON , DE, US) observed 0251 UTC 26 February 2020
Temperature: 9.4°C (49°F)
Dewpoint: 8.3°C (47°F) [RH = 93%]
Pressure (altimeter): 29.86 inches Hg (1011.3 mb)
[Sea-level pressure: 1011.3 mb]
Winds: from the E (80 degrees) at 8 MPH (7 knots; 3.6 m/s)
Visibility: 4 miles ( 6 km)
Ceiling: 400 feet AGL
Clouds: overcast cloud deck at 400 feet AGL
Weather: BR  (mist)

METAR text: KILG 260156Z 06006KT 5SM BR OVC005 09/08 A2986 RMK AO2 CIG 002V008 T00940083
Conditions at: KILG (WILMINGTON , DE, US) observed 0156 UTC 26 February 2020
Temperature: 9.4°C (49°F)
Dewpoint: 8.3°C (47°F) [RH = 93%]
Pressure (altimeter): 29.86 inches Hg (1011.3 mb)
Winds: from the ENE (60 degrees) at 7 MPH (6 knots; 3.1 m/s)
Visibility: 5 miles ( 8 km)
Ceiling: 500 feet AGL
Clouds: overcast cloud deck at 500 feet AGL
Weather: BR  (mist)

METAR text: KILG 260151Z 06005KT 2 1/2SM BR OVC003 09/08 A2986 RMK AO2 CIG 002V006 SLP112 T00940083
Conditions at: KILG (WILMINGTON , DE, US) observed 0151 UTC 26 February 2020
Temperature: 9.4°C (49°F)
Dewpoint: 8.3°C (47°F) [RH = 93%]
Pressure (altimeter): 29.86 inches Hg (1011.3 mb)
[Sea-level pressure: 1011.2 mb]
Winds: from the ENE (60 degrees) at 6 MPH (5 knots; 2.6 m/s)
Visibility: 2.50 miles (4.02 km)
Ceiling: 300 feet AGL
Clouds: overcast cloud deck at 300 feet AGL
Weather: BR  (mist)

METAR text: KILG 260134Z 05004KT 1 3/4SM BR OVC003 09/09 A2986 RMK AO2 T00940089
Conditions at: KILG (WILMINGTON , DE, US) observed 0134 UTC 26 February 2020
Temperature: 9.4°C (49°F)
Dewpoint: 8.9°C (48°F) [RH = 97%]
Pressure (altimeter): 29.86 inches Hg (1011.3 mb)
Winds: from the NE (50 degrees) at 5 MPH (4 knots; 2.1 m/s)
Visibility: 1.75 miles (2.82 km)
Ceiling: 300 feet AGL
Clouds: overcast cloud deck at 300 feet AGL
Weather: BR  (mist)

METAR text: KILG 260102Z 05006KT 2SM BR OVC003 09/09 A2986 RMK AO2 T00940089
Conditions at: KILG (WILMINGTON , DE, US) observed 0102 UTC 26 February 2020
Temperature: 9.4°C (49°F)
Dewpoint: 8.9°C (48°F) [RH = 97%]
Pressure (altimeter): 29.86 inches Hg (1011.3 mb)
Winds: from the NE (50 degrees) at 7 MPH (6 knots; 3.1 m/s)
Visibility: 2.00 miles (3.22 km)
Ceiling: 300 feet AGL
Clouds: overcast cloud deck at 300 feet AGL
Weather: BR  (mist)

METAR text: KILG 260051Z 04006KT 1 3/4SM BR OVC003 09/09 A2986 RMK AO2 SLP109 T00940089
Conditions at: KILG (WILMINGTON , DE, US) observed 0051 UTC 26 February 2020
Temperature: 9.4°C (49°F)
Dewpoint: 8.9°C (48°F) [RH = 97%]
Pressure (altimeter): 29.86 inches Hg (1011.3 mb)
[Sea-level pressure: 1010.9 mb]
Winds: from the NE (40 degrees) at 7 MPH (6 knots; 3.1 m/s)
Visibility: 1.75 miles (2.82 km)
Ceiling: 300 feet AGL
Clouds: overcast cloud deck at 300 feet AGL
Weather: BR  (mist)

METAR text: KILG 252351Z 04007KT 1 1/2SM BR OVC004 10/09 A2984 RMK AO2 SLP105 60009 T01000089 10106 20094 53012
Conditions at: KILG (WILMINGTON , DE, US) observed 2351 UTC 25 February 2020
Temperature: 10.0°C (50°F)
Dewpoint: 8.9°C (48°F) [RH = 93%]
Pressure (altimeter): 29.84 inches Hg (1010.6 mb)
[Sea-level pressure: 1010.5 mb]
Winds: from the NE (40 degrees) at 8 MPH (7 knots; 3.6 m/s)
Visibility: 1.50 miles (2.41 km)
Ceiling: 400 feet AGL
Clouds: overcast cloud deck at 400 feet AGL
Weather: BR  (mist)

METAR text: KILG 252343Z 04007KT 1 3/4SM BR OVC004 10/09 A2984 RMK AO2 T01000089
Conditions at: KILG (WILMINGTON , DE, US) observed 2343 UTC 25 February 2020
Temperature: 10.0°C (50°F)
Dewpoint: 8.9°C (48°F) [RH = 93%]
Pressure (altimeter): 29.84 inches Hg (1010.6 mb)
Winds: from the NE (40 degrees) at 8 MPH (7 knots; 3.6 m/s)
Visibility: 1.75 miles (2.82 km)
Ceiling: 400 feet AGL
Clouds: overcast cloud deck at 400 feet AGL
Weather: BR  (mist)

METAR text: KILG 252333Z 04007KT 2SM BR OVC004 10/09 A2984 RMK AO2 T01000089
Conditions at: KILG (WILMINGTON , DE, US) observed 2333 UTC 25 February 2020
Temperature: 10.0°C (50°F)
Dewpoint: 8.9°C (48°F) [RH = 93%]
Pressure (altimeter): 29.84 inches Hg (1010.6 mb)
Winds: from the NE (40 degrees) at 8 MPH (7 knots; 3.6 m/s)
Visibility: 2.00 miles (3.22 km)
Ceiling: 400 feet AGL
Clouds: overcast cloud deck at 400 feet AGL
Weather: BR  (mist)

METAR text: KILG 252309Z 05007KT 2 1/2SM BR OVC005 10/08 A2983 RMK AO2 T01000083
Conditions at: KILG (WILMINGTON , DE, US) observed 2309 UTC 25 February 2020
Temperature: 10.0°C (50°F)
Dewpoint: 8.3°C (47°F) [RH = 89%]
Pressure (altimeter): 29.83 inches Hg (1010.2 mb)
Winds: from the NE (50 degrees) at 8 MPH (7 knots; 3.6 m/s)
Visibility: 2.50 miles (4.02 km)
Ceiling: 500 feet AGL
Clouds: overcast cloud deck at 500 feet AGL
Weather: BR  (mist)

METAR text: KILG 252259Z 04008KT 2 1/2SM BR OVC004 10/08 A2983 RMK AO2 CIG 002V008 T01000083
Conditions at: KILG (WILMINGTON , DE, US) observed 2259 UTC 25 February 2020
Temperature: 10.0°C (50°F)
Dewpoint: 8.3°C (47°F) [RH = 89%]
Pressure (altimeter): 29.83 inches Hg (1010.2 mb)
Winds: from the NE (40 degrees) at 9 MPH (8 knots; 4.1 m/s)
Visibility: 2.50 miles (4.02 km)
Ceiling: 400 feet AGL
Clouds: overcast cloud deck at 400 feet AGL
Weather: BR  (mist)

METAR text: KILG 252251Z 04006KT 1 3/4SM BR OVC004 10/08 A2982 RMK AO2 CIG 002V007 SLP099 T01000083
Conditions at: KILG (WILMINGTON , DE, US) observed 2251 UTC 25 February 2020
Temperature: 10.0°C (50°F)
Dewpoint: 8.3°C (47°F) [RH = 89%]
Pressure (altimeter): 29.82 inches Hg (1009.9 mb)
[Sea-level pressure: 1009.9 mb]
Winds: from the NE (40 degrees) at 7 MPH (6 knots; 3.1 m/s)
Visibility: 1.75 miles (2.82 km)
Ceiling: 400 feet AGL
Clouds: overcast cloud deck at 400 feet AGL
Weather: BR  (mist)

METAR text: KILG 252151Z 03004KT 1 1/2SM BR OVC004 10/09 A2981 RMK AO2 RAB01E11 SLP094 P0001 T01000089
Conditions at: KILG (WILMINGTON , DE, US) observed 2151 UTC 25 February 2020
Temperature: 10.0°C (50°F)
Dewpoint: 8.9°C (48°F) [RH = 93%]
Pressure (altimeter): 29.81 inches Hg (1009.6 mb)
[Sea-level pressure: 1009.4 mb]
Winds: from the NNE (30 degrees) at 5 MPH (4 knots; 2.1 m/s)
Visibility: 1.50 miles (2.41 km)
Ceiling: 400 feet AGL
Clouds: overcast cloud deck at 400 feet AGL
Weather: BR  (mist)

METAR text: KILG 252051Z 00000KT 1 1/4SM R01/6000VP6000FT BR OVC004 10/09 A2981 RMK AO2 RAE07 CIG 002V007 SLP092 P0001 60008 T01000089 56009
Conditions at: KILG (WILMINGTON , DE, US) observed 2051 UTC 25 February 2020
Temperature: 10.0°C (50°F)
Dewpoint: 8.9°C (48°F) [RH = 93%]
Pressure (altimeter): 29.81 inches Hg (1009.6 mb)
[Sea-level pressure: 1009.2 mb]
Winds: calm
Visibility: 1.25 miles (2.01 km)
Ceiling: 400 feet AGL
Clouds: overcast cloud deck at 400 feet AGL
Weather: BR  (mist)

Forecast for: KILG (WILMINGTON , DE, US)
Text: KILG 270833Z 2709/2806 27015G28KT P6SM SCT030
Forecast period: 0900 to 1100 UTC 27 February 2020
Forecast type: FROM: standard forecast or significant change
Winds: from the W (270 degrees) at 17 MPH (15 knots; 7.7 m/s)
gusting to 32 MPH (28 knots; 14.4 m/s)
Visibility: 6 or more miles 10+ km)
Ceiling: at least 12,000 feet AGL
Clouds: scattered clouds at 3000 feet AGL
Weather: no significant weather forecast for this period
Text: FM271100 28020G32KT P6SM SCT030
Forecast period: 1100 UTC 27 February 2020 to 0000 UTC 28 February 2020
Forecast type: FROM: standard forecast or significant change
Winds: from the W (280 degrees) at 23 MPH (20 knots; 10.3 m/s)
gusting to 37 MPH (32 knots; 16.5 m/s)
Visibility: 6 or more miles 10+ km)
Ceiling: at least 12,000 feet AGL
Clouds: scattered clouds at 3000 feet AGL
Weather: no significant weather forecast for this period
Text: FM280000 27016G26KT P6SM FEW040
Forecast period: 0000 to 0600 UTC 28 February 2020
Forecast type: FROM: standard forecast or significant change
Winds: from the W (270 degrees) at 18 MPH (16 knots; 8.2 m/s)
gusting to 30 MPH (26 knots; 13.4 m/s)
Visibility: 6 or more miles 10+ km)
Ceiling: at least 12,000 feet AGL
Clouds: few clouds at 4000 feet AGL
Weather: no significant weather forecast for this period